Saint Pierre, St. Pierre

1:12 PM PMDT on July 30, 2014 (GMT -0200)
Saint Pierre (LFVP) Elev 26 ft | 46.76 °N, 56.17 °W | Change Station

Current weather conditions updated 12 minutes ago

Fog
Fog
66 °F
Feels Like 66 °F
N
8
Wind Variable Wind from WSW

Today is forecast to be nearly the same temperature as yesterday. A few showers developing late tonight.

Today
High -- | Low -- °F
--% Chance of Precip.
Yesterday
High -- | Low -- °F
Precip. -- in
6:22 AM 9:19 PM
Waxing Crescent, 12% visible
Pressure 30.15 in
Visibility 0.4 miles
Clouds
Dew Point 66 °F
Humidity 100%
Rainfall 0.00 in
Snow Depth Not available.
UV Not available.
Pollen Not available.
Air Quality Not available.
Flu Activity Not available.
METAR LFVP 301500Z 25007KT 0600 R26/P2000 FG VV/// 19/19 Q1021

More Conditions Fewer Conditions

Pressure 30.15 in
Visibility 0.4 miles
Clouds
Dew Point 66 °F
Humidity 100%
Rainfall 0.00 in
Snow Depth Not available.
UV Not available.
Pollen Not available.
Air Quality Not available.
Flu Activity Not available.
METAR LFVP 301500Z 25007KT 0600 R26/P2000 FG VV/// 19/19 Q1021

More Conditions Fewer Conditions

10-Day Weather Forecast

Almanac

Astronomy

Jul. 30, 2014 Rise Set
Actual Time 6:22 AM PMDT 9:19 PM PMDT
Civil Twilight 5:46 AM PMDT 9:54 PM PMDT
Nautical Twilight 5:00 AM PMDT 10:40 PM PMDT
Astronomical Twilight 4:05 AM PMDT 11:34 PM PMDT
Moon 10:05 AM PMDT 10:41 PM PMDT
Length of Visible Light 16h 07m
Length of Day
14h 56m
Tomorrow will be 2m 32s shorter.
Waxing Crescent, 12% of the Moon is Illuminated
Today
Waxing Crescent
Aug 3
First Quarter
Aug 10
Full
Aug 17
Last Quarter
Aug 25
New

Today's Extremes

Country Highs Country Lows

Community

WunderPhotos

Upload Photos

1,739,107 photos uploaded!

WunderBlogs® & News

By Dr. Jeff Masters
Director of Meteorology, Weather Underground
By Kari Strenfel
Meteorologist, Weather Underground
By Christopher C. Burt
Weather Historian, Weather Underground
July 30, 2014
July 30, 2014
July 30, 2014

Nearby

Snow Depth

Not available.

Earthquake Activity

City Distance Mag. Time & Date
No recent earthquake activity has been reported nearby.
Minimum magnitude displayed is 2.5.

Coastal Water Temperatures

Place Temperature
No Stations Reporting

Nearby Weather Stations

There are no personal weather stations in this area.